createdAt,value
2017-01-25T00:00:50.248Z,0
2017-01-25T00:01:50.238Z,0
2017-01-25T00:02:50.607Z,0
2017-01-25T00:03:50.205Z,0
2017-01-25T00:04:50.193Z,0
2017-01-25T00:05:50.182Z,0
2017-01-25T00:06:50.166Z,0
2017-01-25T00:07:50.155Z,0
2017-01-25T00:08:50.140Z,0
2017-01-25T00:09:50.512Z,0
2017-01-25T00:10:50.163Z,0
2017-01-25T00:11:50.105Z,0
2017-01-25T00:12:50.089Z,0
2017-01-25T00:13:50.072Z,0
2017-01-25T00:14:50.059Z,0
2017-01-25T00:15:50.053Z,0
2017-01-25T00:16:50.041Z,0
2017-01-25T00:17:50.019Z,0
2017-01-25T00:18:50.011Z,0
2017-01-25T00:19:49.993Z,0
2017-01-25T00:20:50.367Z,0
2017-01-25T00:21:49.969Z,0
2017-01-25T00:22:49.957Z,0
2017-01-25T00:23:49.945Z,0
2017-01-25T00:24:50.317Z,0
2017-01-25T00:25:49.920Z,0
2017-01-25T00:26:49.900Z,0
2017-01-25T00:27:49.913Z,0
2017-01-25T00:28:49.874Z,0
2017-01-25T00:29:49.864Z,0
2017-01-25T00:30:49.851Z,0
2017-01-25T00:31:49.837Z,0
2017-01-25T00:32:49.823Z,0
2017-01-25T00:33:49.810Z,0
2017-01-25T00:34:49.797Z,0
2017-01-25T00:35:49.784Z,0
2017-01-25T00:36:50.164Z,0
2017-01-25T00:37:49.756Z,0
2017-01-25T00:38:49.747Z,0
2017-01-25T00:39:49.765Z,0
2017-01-25T00:40:49.722Z,0
2017-01-25T00:41:49.707Z,0
2017-01-25T00:42:49.689Z,0
2017-01-25T00:43:49.680Z,0
2017-01-25T00:44:49.666Z,0
2017-01-25T00:45:49.664Z,0
2017-01-25T00:46:49.641Z,0
2017-01-25T00:47:49.623Z,0
2017-01-25T00:48:49.616Z,0
2017-01-25T00:49:49.603Z,0
2017-01-25T00:50:49.973Z,0
2017-01-25T00:51:49.574Z,0
2017-01-25T00:52:49.564Z,0
2017-01-25T00:53:49.555Z,0
2017-01-25T00:54:50.308Z,0
2017-01-25T00:55:49.521Z,0
2017-01-25T00:56:49.505Z,0
2017-01-25T00:57:49.494Z,0
2017-01-25T00:58:49.480Z,0
2017-01-25T00:59:49.472Z,0
2017-01-25T01:00:49.893Z,0
2017-01-25T01:01:49.440Z,0
2017-01-25T01:02:49.427Z,0
2017-01-25T01:03:49.417Z,0
2017-01-25T01:04:49.404Z,0
2017-01-25T01:05:49.416Z,0
2017-01-25T01:06:49.375Z,0
2017-01-25T01:07:49.364Z,0
2017-01-25T01:08:49.359Z,0
2017-01-25T01:09:49.338Z,0
2017-01-25T01:10:49.325Z,0
2017-01-25T01:11:49.314Z,0
2017-01-25T01:12:49.301Z,0
2017-01-25T01:13:49.285Z,0
2017-01-25T01:14:49.273Z,0
2017-01-25T01:15:49.260Z,0
2017-01-25T01:16:49.244Z,0
2017-01-25T01:17:49.231Z,0
2017-01-25T01:18:49.218Z,0
2017-01-25T01:19:49.213Z,0
2017-01-25T01:20:49.194Z,0
2017-01-25T01:21:49.178Z,0
2017-01-25T01:22:49.171Z,0
2017-01-25T01:23:49.153Z,0
2017-01-25T01:24:49.136Z,0
2017-01-25T01:25:49.130Z,0
2017-01-25T01:26:49.115Z,0
2017-01-25T01:27:49.497Z,0
2017-01-25T01:28:49.474Z,0
2017-01-25T01:29:49.076Z,0
2017-01-25T01:30:49.061Z,0
2017-01-25T01:31:49.435Z,0
2017-01-25T01:32:49.033Z,0
2017-01-25T01:33:49.024Z,0
2017-01-25T01:34:49.011Z,0
2017-01-25T01:35:48.995Z,0
2017-01-25T01:36:48.980Z,0
2017-01-25T01:37:48.969Z,0
2017-01-25T01:38:48.959Z,0
2017-01-25T01:39:48.943Z,0
2017-01-25T01:40:48.931Z,0
2017-01-25T01:41:48.923Z,0
2017-01-25T01:42:48.898Z,0
2017-01-25T01:43:48.889Z,0
2017-01-25T01:44:49.263Z,0
2017-01-25T01:45:48.869Z,0
2017-01-25T01:46:49.237Z,0
2017-01-25T01:47:48.835Z,0
2017-01-25T01:48:48.826Z,0
2017-01-25T01:49:49.209Z,0
2017-01-25T01:50:48.798Z,0
2017-01-25T01:51:48.804Z,0
2017-01-25T01:52:49.159Z,0
2017-01-25T01:53:48.789Z,0
2017-01-25T01:54:48.748Z,0
2017-01-25T01:55:48.731Z,0
2017-01-25T01:56:48.720Z,0
2017-01-25T01:57:48.719Z,0
2017-01-25T01:58:48.996Z,0
2017-01-25T01:59:48.678Z,0
2017-01-25T02:00:48.660Z,0
2017-01-25T02:01:48.648Z,0
2017-01-25T02:02:48.642Z,0
2017-01-25T02:03:48.662Z,0
2017-01-25T02:04:48.618Z,0
2017-01-25T02:05:48.599Z,0
2017-01-25T02:06:48.588Z,0
2017-01-25T02:07:48.587Z,0
2017-01-25T02:08:48.567Z,0
2017-01-25T02:09:48.553Z,0
2017-01-25T02:10:48.535Z,0
2017-01-25T02:11:48.906Z,0
2017-01-25T02:12:48.508Z,0
2017-01-25T02:13:48.496Z,0
2017-01-25T02:14:48.479Z,0
2017-01-25T02:15:48.475Z,0
2017-01-25T02:16:48.456Z,0
2017-01-25T02:17:48.448Z,0
2017-01-25T02:18:48.446Z,0
2017-01-25T02:19:48.416Z,0
2017-01-25T02:20:48.427Z,0
2017-01-25T02:21:48.390Z,0
2017-01-25T02:22:48.380Z,0
2017-01-25T02:23:48.363Z,0
2017-01-25T02:24:48.378Z,0
2017-01-25T02:25:48.337Z,0
2017-01-25T02:26:48.333Z,0
2017-01-25T02:27:48.308Z,0
2017-01-25T02:28:48.299Z,0
2017-01-25T02:29:48.281Z,0
2017-01-25T02:30:48.272Z,0
2017-01-25T02:31:48.256Z,0
2017-01-25T02:32:48.246Z,0
2017-01-25T02:33:48.227Z,0
2017-01-25T02:34:48.215Z,0
2017-01-25T02:35:48.201Z,0
2017-01-25T02:36:48.189Z,0
2017-01-25T02:37:48.204Z,0
2017-01-25T02:38:48.164Z,0
2017-01-25T02:39:48.173Z,0
2017-01-25T02:40:48.136Z,0
2017-01-25T02:41:48.126Z,0
2017-01-25T02:42:48.113Z,0
2017-01-25T02:43:48.095Z,0
2017-01-25T02:44:48.473Z,0
2017-01-25T02:45:48.102Z,0
2017-01-25T02:46:48.057Z,0
2017-01-25T02:47:48.044Z,0
2017-01-25T02:48:48.031Z,0
2017-01-25T02:49:48.018Z,0
2017-01-25T02:50:48.002Z,0
2017-01-25T02:51:47.995Z,0
2017-01-25T02:52:47.978Z,0
2017-01-25T02:53:47.972Z,0
2017-01-25T02:54:47.947Z,0
2017-01-25T02:55:47.938Z,0
2017-01-25T02:56:48.329Z,0
2017-01-25T02:57:47.918Z,0
2017-01-25T02:58:47.902Z,0
2017-01-25T02:59:47.882Z,0
2017-01-25T03:00:47.873Z,0
2017-01-25T03:01:47.866Z,0
2017-01-25T03:02:47.842Z,0
2017-01-25T03:03:47.836Z,0
2017-01-25T03:04:47.822Z,0
2017-01-25T03:05:47.809Z,0
2017-01-25T03:06:47.796Z,0
2017-01-25T03:07:47.779Z,0
2017-01-25T03:08:47.767Z,0
2017-01-25T03:09:47.758Z,0
2017-01-25T03:10:47.741Z,0
2017-01-25T03:11:47.732Z,0
2017-01-25T03:12:47.712Z,0
2017-01-25T03:13:47.700Z,0
2017-01-25T03:14:47.687Z,0
2017-01-25T03:15:47.670Z,0
2017-01-25T03:16:47.661Z,0
2017-01-25T03:17:47.656Z,0
2017-01-25T03:18:48.039Z,0
2017-01-25T03:19:47.622Z,0
2017-01-25T03:20:47.608Z,0
2017-01-25T03:21:47.595Z,0
2017-01-25T03:22:47.584Z,0
2017-01-25T03:23:47.576Z,0
2017-01-25T03:24:47.555Z,0
2017-01-25T03:25:47.538Z,0
2017-01-25T03:26:47.528Z,0
2017-01-25T03:27:47.517Z,0
2017-01-25T03:28:47.501Z,0
2017-01-25T03:29:47.877Z,0
2017-01-25T03:30:47.474Z,0
2017-01-25T03:31:47.464Z,0
2017-01-25T03:32:47.445Z,0
2017-01-25T03:33:47.435Z,0
2017-01-25T03:34:47.422Z,0
2017-01-25T03:35:47.794Z,0
2017-01-25T03:36:47.417Z,0
2017-01-25T03:37:47.385Z,0
2017-01-25T03:38:47.367Z,0
2017-01-25T03:39:47.748Z,0
2017-01-25T03:40:47.342Z,0
2017-01-25T03:41:47.331Z,0
2017-01-25T03:42:47.315Z,0
2017-01-25T03:43:47.310Z,0
2017-01-25T03:44:47.291Z,0
2017-01-25T03:45:47.280Z,0
2017-01-25T03:46:47.262Z,0
2017-01-25T03:47:47.252Z,0
2017-01-25T03:48:47.235Z,0
2017-01-25T03:49:47.220Z,0
2017-01-25T03:50:47.212Z,0
2017-01-25T03:51:47.196Z,0
2017-01-25T03:52:47.185Z,0
2017-01-25T03:53:47.172Z,0
2017-01-25T03:54:47.155Z,0
2017-01-25T03:55:47.142Z,0
2017-01-25T03:56:47.135Z,0
2017-01-25T03:57:47.116Z,0
2017-01-25T03:58:47.104Z,0
2017-01-25T03:59:47.091Z,0
2017-01-25T04:00:47.079Z,0
2017-01-25T04:01:47.064Z,0
2017-01-25T04:02:47.047Z,0
2017-01-25T04:03:47.049Z,0
2017-01-25T04:04:47.024Z,0
2017-01-25T04:05:47.015Z,0
2017-01-25T04:06:47.001Z,0
2017-01-25T04:07:46.985Z,0
2017-01-25T04:08:46.974Z,0
2017-01-25T04:09:46.957Z,0
2017-01-25T04:10:46.944Z,0
2017-01-25T04:11:46.934Z,0
2017-01-25T04:12:46.923Z,0
2017-01-25T04:13:46.924Z,0
2017-01-25T04:14:46.891Z,0
2017-01-25T04:15:46.894Z,0
2017-01-25T04:16:46.865Z,0
2017-01-25T04:17:46.868Z,0
2017-01-25T04:18:46.841Z,0
2017-01-25T04:19:46.829Z,0
2017-01-25T04:20:46.816Z,0
2017-01-25T04:21:46.800Z,0
2017-01-25T04:22:46.787Z,0
2017-01-25T04:23:46.773Z,0
2017-01-25T04:24:46.765Z,0
2017-01-25T04:25:46.746Z,0
2017-01-25T04:26:46.738Z,0
2017-01-25T04:27:46.721Z,0
2017-01-25T04:28:46.712Z,0
2017-01-25T04:29:46.694Z,0
2017-01-25T04:30:46.678Z,0
2017-01-25T04:31:46.669Z,0
2017-01-25T04:32:46.652Z,0
2017-01-25T04:33:46.641Z,0
2017-01-25T04:34:46.628Z,0
2017-01-25T04:35:46.621Z,0
2017-01-25T04:36:46.597Z,0
2017-01-25T04:37:46.585Z,0
2017-01-25T04:38:46.958Z,0
2017-01-25T04:39:46.560Z,0
2017-01-25T04:40:46.550Z,0
2017-01-25T04:41:46.531Z,0
2017-01-25T04:42:46.515Z,0
2017-01-25T04:43:46.514Z,0
2017-01-25T04:44:46.495Z,0
2017-01-25T04:45:46.481Z,0
2017-01-25T04:46:46.465Z,0
2017-01-25T04:47:46.449Z,0
2017-01-25T04:48:46.459Z,0
2017-01-25T04:49:46.450Z,0
2017-01-25T04:50:46.444Z,0
2017-01-25T04:51:46.785Z,0
2017-01-25T04:52:46.411Z,0
2017-01-25T04:53:46.371Z,0
2017-01-25T04:54:46.365Z,0
2017-01-25T04:55:46.343Z,0
2017-01-25T04:56:46.331Z,0
2017-01-25T04:57:46.319Z,0
2017-01-25T04:58:46.306Z,0
2017-01-25T04:59:46.294Z,0
2017-01-25T05:00:46.627Z,0
2017-01-25T05:01:46.268Z,0
2017-01-25T05:02:46.270Z,0
2017-01-25T05:03:46.238Z,0
2017-01-25T05:04:46.223Z,0
2017-01-25T05:05:46.213Z,0
2017-01-25T05:06:46.200Z,0
2017-01-25T05:07:46.184Z,0
2017-01-25T05:08:46.175Z,0
2017-01-25T05:09:46.159Z,0
2017-01-25T05:10:46.144Z,0
2017-01-25T05:11:46.129Z,0
2017-01-25T05:12:46.120Z,0
2017-01-25T05:13:46.104Z,0
2017-01-25T05:14:46.104Z,0
2017-01-25T05:15:46.078Z,0
2017-01-25T05:16:46.063Z,0
2017-01-25T05:17:46.053Z,0
2017-01-25T05:18:46.035Z,0
2017-01-25T05:19:46.027Z,0
2017-01-25T05:20:46.015Z,0
2017-01-25T05:21:45.994Z,0
2017-01-25T05:22:46.012Z,0
2017-01-25T05:23:45.981Z,0
2017-01-25T05:24:45.963Z,0
2017-01-25T05:25:45.941Z,0
2017-01-25T05:26:45.933Z,0
2017-01-25T05:27:45.917Z,0
2017-01-25T05:28:45.901Z,0
2017-01-25T05:29:45.890Z,0
2017-01-25T05:30:45.877Z,0
2017-01-25T05:31:45.863Z,0
2017-01-25T05:32:45.851Z,0
2017-01-25T05:33:45.833Z,0
2017-01-25T05:34:45.820Z,0
2017-01-25T05:35:45.814Z,0
2017-01-25T05:36:45.805Z,0
2017-01-25T05:37:45.782Z,0
2017-01-25T05:38:45.795Z,0
2017-01-25T05:39:45.782Z,0
2017-01-25T05:40:45.740Z,0
2017-01-25T05:41:45.732Z,0
2017-01-25T05:42:45.712Z,0
2017-01-25T05:43:45.702Z,0
2017-01-25T05:44:45.686Z,0
2017-01-25T05:45:45.675Z,0
2017-01-25T05:46:45.683Z,0
2017-01-25T05:47:45.645Z,0
2017-01-25T05:48:45.634Z,0
2017-01-25T05:49:45.620Z,0
2017-01-25T05:50:45.607Z,0
2017-01-25T05:51:45.597Z,0
2017-01-25T05:52:45.578Z,0
2017-01-25T05:53:45.565Z,0
2017-01-25T05:54:45.557Z,0
2017-01-25T05:55:45.565Z,0
2017-01-25T05:56:45.527Z,0
2017-01-25T05:57:45.514Z,0
2017-01-25T05:58:45.497Z,0
2017-01-25T05:59:45.483Z,0
2017-01-25T06:00:45.473Z,0
2017-01-25T06:01:45.457Z,0
2017-01-25T06:02:45.443Z,0
2017-01-25T06:03:45.431Z,0
2017-01-25T06:04:45.447Z,0
2017-01-25T06:05:45.404Z,0
2017-01-25T06:06:45.391Z,0
2017-01-25T06:07:45.378Z,0
2017-01-25T06:08:45.755Z,0
2017-01-25T06:09:45.367Z,0
2017-01-25T06:10:45.337Z,0
2017-01-25T06:11:45.326Z,0
2017-01-25T06:12:45.310Z,0
2017-01-25T06:13:45.302Z,0
2017-01-25T06:14:45.288Z,0
2017-01-25T06:15:45.274Z,0
2017-01-25T06:16:45.260Z,0
2017-01-25T06:17:45.240Z,0
2017-01-25T06:18:45.233Z,0
2017-01-25T06:19:45.218Z,0
2017-01-25T06:20:45.221Z,0
2017-01-25T06:21:45.578Z,0
2017-01-25T06:22:45.184Z,0
2017-01-25T06:23:45.168Z,0
2017-01-25T06:24:45.154Z,0
2017-01-25T06:25:45.140Z,0
2017-01-25T06:26:45.121Z,0
2017-01-25T06:27:45.115Z,0
2017-01-25T06:28:45.099Z,0
2017-01-25T06:29:45.088Z,0
2017-01-25T06:30:45.099Z,0
2017-01-25T06:31:45.082Z,0
2017-01-25T06:32:45.459Z,0
2017-01-25T06:33:45.045Z,0
2017-01-25T06:34:45.046Z,0
2017-01-25T06:35:45.010Z,0
2017-01-25T06:36:44.997Z,0
2017-01-25T06:37:45.367Z,0
2017-01-25T06:38:44.970Z,0
2017-01-25T06:39:44.977Z,0
2017-01-25T06:40:44.944Z,0
2017-01-25T06:41:44.929Z,0
2017-01-25T06:42:44.947Z,0
2017-01-25T06:43:44.900Z,0
2017-01-25T06:44:44.902Z,0
2017-01-25T06:45:44.878Z,0
2017-01-25T06:46:45.246Z,0
2017-01-25T06:47:44.848Z,0
2017-01-25T06:48:44.837Z,0
2017-01-25T06:49:44.825Z,0
2017-01-25T06:50:45.201Z,0
2017-01-25T06:51:44.795Z,0
2017-01-25T06:52:44.787Z,5
2017-01-25T06:53:44.769Z,5
2017-01-25T06:54:45.153Z,5
2017-01-25T06:55:44.743Z,5
2017-01-25T06:56:44.728Z,5
2017-01-25T06:57:44.715Z,5
2017-01-25T06:58:44.714Z,5
2017-01-25T06:59:44.717Z,5
2017-01-25T07:00:44.682Z,5
2017-01-25T07:01:44.688Z,5
2017-01-25T07:02:44.678Z,5
2017-01-25T07:03:44.640Z,5
2017-01-25T07:04:44.626Z,10
2017-01-25T07:05:44.614Z,10
2017-01-25T07:06:44.598Z,10
2017-01-25T07:07:44.582Z,10
2017-01-25T07:08:44.578Z,10
2017-01-25T07:09:44.555Z,10
2017-01-25T07:10:44.543Z,10
2017-01-25T07:11:44.527Z,15
2017-01-25T07:12:44.523Z,15
2017-01-25T07:13:44.505Z,15
2017-01-25T07:14:44.493Z,15
2017-01-25T07:15:44.481Z,15
2017-01-25T07:16:44.469Z,15
2017-01-25T07:17:44.480Z,20
2017-01-25T07:18:44.438Z,20
2017-01-25T07:19:44.432Z,20
2017-01-25T07:20:44.412Z,20
2017-01-25T07:21:44.427Z,20
2017-01-25T07:22:44.385Z,20
2017-01-25T07:23:44.375Z,25
2017-01-25T07:24:44.390Z,25
2017-01-25T07:25:44.353Z,25
2017-01-25T07:26:44.334Z,25
2017-01-25T07:27:44.324Z,30
2017-01-25T07:28:44.308Z,30
2017-01-25T07:29:44.296Z,30
2017-01-25T07:30:44.282Z,30
2017-01-25T07:31:44.273Z,35
2017-01-25T07:32:44.266Z,35
2017-01-25T07:33:44.242Z,35
2017-01-25T07:34:44.230Z,35
2017-01-25T07:35:44.220Z,35
2017-01-25T07:36:44.205Z,35
2017-01-25T07:37:44.190Z,35
2017-01-25T07:38:44.179Z,35
2017-01-25T07:39:44.170Z,40
2017-01-25T07:40:44.155Z,40
2017-01-25T07:41:44.145Z,40
2017-01-25T07:42:44.126Z,40
2017-01-25T07:43:44.110Z,45
2017-01-25T07:44:44.106Z,45
2017-01-25T07:45:44.473Z,45
2017-01-25T07:46:44.083Z,45
2017-01-25T07:47:44.062Z,45
2017-01-25T07:48:44.074Z,45
2017-01-25T07:49:44.035Z,45
2017-01-25T07:50:44.024Z,45
2017-01-25T07:51:44.008Z,45
2017-01-25T07:52:43.995Z,45
2017-01-25T07:53:44.681Z,45
2017-01-25T07:54:43.974Z,45
2017-01-25T07:55:43.957Z,45
2017-01-25T07:56:43.943Z,45
2017-01-25T07:57:43.936Z,45
2017-01-25T07:58:43.930Z,45
2017-01-25T07:59:43.909Z,45
2017-01-25T08:00:43.893Z,45
2017-01-25T08:01:44.295Z,40
2017-01-25T08:02:43.870Z,45
2017-01-25T08:03:44.243Z,45
2017-01-25T08:04:43.846Z,45
2017-01-25T08:05:43.831Z,45
2017-01-25T08:06:43.818Z,45
2017-01-25T08:07:43.804Z,45
2017-01-25T08:08:43.788Z,45
2017-01-25T08:09:43.802Z,45
2017-01-25T08:10:43.764Z,45
2017-01-25T08:11:43.752Z,45
2017-01-25T08:12:43.742Z,45
2017-01-25T08:13:43.728Z,50
2017-01-25T08:14:43.711Z,50
2017-01-25T08:15:43.702Z,50
2017-01-25T08:16:43.689Z,50
2017-01-25T08:17:43.677Z,50
2017-01-25T08:18:43.660Z,50
2017-01-25T08:19:43.654Z,55
2017-01-25T08:20:43.638Z,60
2017-01-25T08:21:43.620Z,70
2017-01-25T08:22:43.611Z,70
2017-01-25T08:23:43.622Z,70
2017-01-25T08:24:43.967Z,75
2017-01-25T08:25:43.610Z,75
2017-01-25T08:26:43.566Z,75
2017-01-25T08:27:43.544Z,75
2017-01-25T08:28:43.534Z,80
2017-01-25T08:29:43.549Z,75
2017-01-25T08:30:43.543Z,75
2017-01-25T08:31:43.495Z,75
2017-01-25T08:32:43.480Z,75
2017-01-25T08:33:43.467Z,75
2017-01-25T08:34:43.453Z,75
2017-01-25T08:35:43.451Z,70
2017-01-25T08:36:43.431Z,70
2017-01-25T08:37:43.417Z,70
2017-01-25T08:38:43.406Z,70
2017-01-25T08:39:43.389Z,70
2017-01-25T08:40:43.377Z,70
2017-01-25T08:41:43.367Z,70
2017-01-25T08:42:43.384Z,70
2017-01-25T08:43:43.345Z,70
2017-01-25T08:44:43.327Z,70
2017-01-25T08:45:43.320Z,65
2017-01-25T08:46:43.307Z,65
2017-01-25T08:47:43.292Z,70
2017-01-25T08:48:43.279Z,70
2017-01-25T08:49:43.272Z,70
2017-01-25T08:50:43.255Z,75
2017-01-25T08:51:43.243Z,75
2017-01-25T08:52:43.233Z,75
2017-01-25T08:53:43.602Z,85
2017-01-25T08:54:43.201Z,80
2017-01-25T08:55:43.195Z,80
2017-01-25T08:56:43.178Z,80
2017-01-25T08:57:43.161Z,80
2017-01-25T08:58:43.165Z,80
2017-01-25T08:59:43.143Z,80
2017-01-25T09:00:43.138Z,80
2017-01-25T09:01:43.115Z,85
2017-01-25T09:02:43.100Z,85
2017-01-25T09:03:43.089Z,85
2017-01-25T09:04:43.076Z,90
2017-01-25T09:05:43.064Z,90
2017-01-25T09:06:43.055Z,85
2017-01-25T09:07:43.047Z,75
2017-01-25T09:08:43.029Z,75
2017-01-25T09:09:43.017Z,80
2017-01-25T09:10:43.008Z,80
2017-01-25T09:11:43.015Z,80
2017-01-25T09:12:42.978Z,85
2017-01-25T09:13:42.968Z,90
2017-01-25T09:14:42.950Z,85
2017-01-25T09:15:42.947Z,85
2017-01-25T09:16:42.922Z,85
2017-01-25T09:17:42.916Z,85
2017-01-25T09:18:42.918Z,85
2017-01-25T09:19:43.139Z,85
2017-01-25T09:20:42.876Z,85
2017-01-25T09:21:42.866Z,85
2017-01-25T09:22:42.852Z,90
2017-01-25T09:23:42.837Z,90
2017-01-25T09:24:42.823Z,85
2017-01-25T09:25:42.809Z,85
2017-01-25T09:26:42.799Z,80
2017-01-25T09:27:42.799Z,80
2017-01-25T09:28:42.780Z,85
2017-01-25T09:29:42.761Z,90
2017-01-25T09:30:42.753Z,95
2017-01-25T09:31:42.743Z,100
2017-01-25T09:32:42.726Z,95
2017-01-25T09:33:42.712Z,95
2017-01-25T09:34:42.714Z,100
2017-01-25T09:35:42.690Z,90
2017-01-25T09:36:42.687Z,95
2017-01-25T09:37:43.052Z,100
2017-01-25T09:38:42.649Z,105
2017-01-25T09:39:42.639Z,105
2017-01-25T09:40:42.635Z,110
2017-01-25T09:41:42.612Z,110
2017-01-25T09:42:42.603Z,115
2017-01-25T09:43:42.619Z,120
2017-01-25T09:44:42.580Z,115
2017-01-25T09:45:42.566Z,110
2017-01-25T09:46:42.553Z,110
2017-01-25T09:47:42.544Z,115
2017-01-25T09:48:42.530Z,115
2017-01-25T09:49:42.520Z,110
2017-01-25T09:50:42.508Z,110
2017-01-25T09:51:42.493Z,110
2017-01-25T09:52:42.481Z,120
2017-01-25T09:53:42.495Z,115
2017-01-25T09:54:42.459Z,115
2017-01-25T09:55:42.448Z,120
2017-01-25T09:56:42.436Z,120
2017-01-25T09:57:42.424Z,115
2017-01-25T09:58:42.411Z,120
2017-01-25T09:59:42.401Z,125
2017-01-25T10:00:42.386Z,125
2017-01-25T10:01:42.377Z,125
2017-01-25T10:02:42.749Z,125
2017-01-25T10:03:42.352Z,125
2017-01-25T10:04:42.726Z,120
2017-01-25T10:05:42.328Z,125
2017-01-25T10:06:42.313Z,130
2017-01-25T10:07:42.301Z,140
2017-01-25T10:08:42.300Z,135
2017-01-25T10:09:42.279Z,130
2017-01-25T10:10:42.267Z,130
2017-01-25T10:11:42.255Z,135
2017-01-25T10:12:42.248Z,135
2017-01-25T10:13:42.239Z,140
2017-01-25T10:14:42.225Z,135
2017-01-25T10:15:42.236Z,140
2017-01-25T10:16:42.199Z,140
2017-01-25T10:17:42.188Z,140
2017-01-25T10:18:42.173Z,130
2017-01-25T10:19:42.166Z,130
2017-01-25T10:20:42.155Z,135
2017-01-25T10:21:42.530Z,135
2017-01-25T10:22:42.129Z,135
2017-01-25T10:23:42.115Z,140
2017-01-25T10:24:42.106Z,140
2017-01-25T10:25:42.125Z,135
2017-01-25T10:26:42.082Z,140
2017-01-25T10:27:42.071Z,145
2017-01-25T10:28:42.061Z,150
2017-01-25T10:29:42.074Z,155
2017-01-25T10:30:42.035Z,160
2017-01-25T10:31:42.021Z,155
2017-01-25T10:32:42.014Z,150
2017-01-25T10:33:42.001Z,160
2017-01-25T10:34:41.994Z,170
2017-01-25T10:35:41.973Z,175
2017-01-25T10:36:41.963Z,160
2017-01-25T10:37:41.954Z,145
2017-01-25T10:38:41.942Z,140
2017-01-25T10:39:41.932Z,150
2017-01-25T10:40:41.921Z,155
2017-01-25T10:41:41.916Z,145
2017-01-25T10:42:41.898Z,140
2017-01-25T10:43:41.885Z,150
2017-01-25T10:44:41.872Z,150
2017-01-25T10:45:41.860Z,155
2017-01-25T10:46:41.854Z,165
2017-01-25T10:47:41.836Z,170
2017-01-25T10:48:41.826Z,160
2017-01-25T10:49:41.813Z,150
2017-01-25T10:50:41.801Z,150
2017-01-25T10:51:41.800Z,150
2017-01-25T10:52:42.174Z,155
2017-01-25T10:53:41.773Z,150
2017-01-25T10:54:41.760Z,145
2017-01-25T10:55:41.749Z,150
2017-01-25T10:56:41.740Z,150
2017-01-25T10:57:41.723Z,165
2017-01-25T10:58:41.718Z,170
2017-01-25T10:59:41.705Z,160
2017-01-25T11:00:41.694Z,155
2017-01-25T11:01:41.919Z,155
2017-01-25T11:02:41.669Z,160
2017-01-25T11:03:41.663Z,165
2017-01-25T11:04:42.036Z,165
2017-01-25T11:05:41.638Z,165
2017-01-25T11:06:42.013Z,170
2017-01-25T11:07:41.615Z,160
2017-01-25T11:08:41.607Z,155
2017-01-25T11:09:41.595Z,155
2017-01-25T11:10:41.583Z,155
2017-01-25T11:11:41.575Z,160
2017-01-25T11:12:41.561Z,165
2017-01-25T11:13:41.555Z,160
2017-01-25T11:14:41.545Z,160
2017-01-25T11:15:41.531Z,160
2017-01-25T11:16:41.516Z,155
2017-01-25T11:17:41.505Z,150
2017-01-25T11:18:41.492Z,145
2017-01-25T11:19:41.482Z,140
2017-01-25T11:20:41.474Z,145
2017-01-25T11:21:41.460Z,145
2017-01-25T11:22:41.449Z,150
2017-01-25T11:23:41.436Z,150
2017-01-25T11:24:41.424Z,150
2017-01-25T11:25:41.417Z,155
2017-01-25T11:26:41.406Z,155
2017-01-25T11:27:41.417Z,150
2017-01-25T11:28:41.389Z,150
2017-01-25T11:29:41.371Z,145
2017-01-25T11:30:41.361Z,150
2017-01-25T11:31:41.348Z,150
2017-01-25T11:32:41.343Z,150
2017-01-25T11:33:41.713Z,150
2017-01-25T11:34:41.325Z,145
2017-01-25T11:35:41.314Z,140
2017-01-25T11:36:41.301Z,140
2017-01-25T11:37:41.283Z,140
2017-01-25T11:38:41.277Z,140
2017-01-25T11:39:41.654Z,140
2017-01-25T11:40:41.249Z,140
2017-01-25T11:41:41.244Z,140
2017-01-25T11:42:41.262Z,140
2017-01-25T11:43:41.242Z,140
2017-01-25T11:44:41.206Z,145
2017-01-25T11:45:41.201Z,140
2017-01-25T11:46:41.191Z,140
2017-01-25T11:47:41.186Z,140
2017-01-25T11:48:41.166Z,135
2017-01-25T11:49:41.155Z,135
2017-01-25T11:50:41.143Z,135
2017-01-25T11:51:41.130Z,125
2017-01-25T11:52:41.122Z,125
2017-01-25T11:53:41.496Z,125
2017-01-25T11:54:41.122Z,125
2017-01-25T11:55:41.087Z,130
2017-01-25T11:56:41.074Z,130
2017-01-25T11:57:41.069Z,130
2017-01-25T11:58:41.053Z,135
2017-01-25T11:59:41.048Z,135
2017-01-25T12:00:41.034Z,140
2017-01-25T12:01:41.026Z,140
2017-01-25T12:02:41.043Z,140
2017-01-25T12:03:40.999Z,140
2017-01-25T12:04:41.384Z,135
2017-01-25T12:05:40.995Z,135
2017-01-25T12:06:40.966Z,140
2017-01-25T12:07:40.984Z,140
2017-01-25T12:08:40.943Z,140
2017-01-25T12:09:40.937Z,140
2017-01-25T12:10:40.923Z,140
2017-01-25T12:11:40.909Z,140
2017-01-25T12:12:40.900Z,145
2017-01-25T12:13:40.889Z,145
2017-01-25T12:14:40.886Z,145
2017-01-25T12:15:40.873Z,145
2017-01-25T12:16:40.864Z,150
2017-01-25T12:17:40.848Z,150
2017-01-25T12:18:40.829Z,145
2017-01-25T12:19:40.824Z,140
2017-01-25T12:20:40.814Z,145
2017-01-25T12:21:40.799Z,145
2017-01-25T12:22:40.789Z,145
2017-01-25T12:23:40.786Z,140
2017-01-25T12:24:41.160Z,135
2017-01-25T12:25:40.762Z,135
2017-01-25T12:26:40.766Z,135
2017-01-25T12:27:40.733Z,135
2017-01-25T12:28:40.723Z,135
2017-01-25T12:29:41.095Z,140
2017-01-25T12:30:40.705Z,145
2017-01-25T12:31:40.893Z,145
2017-01-25T12:32:40.679Z,140
2017-01-25T12:33:41.068Z,130
2017-01-25T12:34:40.661Z,135
2017-01-25T12:35:40.651Z,135
2017-01-25T12:36:40.635Z,125
2017-01-25T12:37:41.014Z,120
2017-01-25T12:38:40.640Z,120
2017-01-25T12:39:40.602Z,125
2017-01-25T12:40:40.593Z,130
2017-01-25T12:41:40.580Z,120
2017-01-25T12:42:40.566Z,120
2017-01-25T12:43:40.556Z,120
2017-01-25T12:44:40.551Z,115
2017-01-25T12:45:40.539Z,120
2017-01-25T12:46:40.549Z,125
2017-01-25T12:47:40.513Z,125
2017-01-25T12:48:40.505Z,130
2017-01-25T12:49:40.502Z,135
2017-01-25T12:50:40.479Z,125
2017-01-25T12:51:40.475Z,125
2017-01-25T12:52:40.463Z,125
2017-01-25T12:53:40.449Z,120
2017-01-25T12:54:40.446Z,120
2017-01-25T12:55:40.435Z,120
2017-01-25T12:56:40.415Z,115
2017-01-25T12:57:40.413Z,110
2017-01-25T12:58:40.401Z,120
2017-01-25T12:59:40.386Z,115
2017-01-25T13:00:40.373Z,110
2017-01-25T13:01:40.358Z,105
2017-01-25T13:02:40.350Z,110
2017-01-25T13:03:40.338Z,120
2017-01-25T13:04:40.331Z,120
2017-01-25T13:05:40.315Z,115
2017-01-25T13:06:40.310Z,115
2017-01-25T13:07:40.295Z,115
2017-01-25T13:08:40.284Z,120
2017-01-25T13:09:40.475Z,120
2017-01-25T13:10:40.261Z,120
2017-01-25T13:11:40.251Z,125
2017-01-25T13:12:40.233Z,120
2017-01-25T13:13:40.232Z,110
2017-01-25T13:14:40.602Z,115
2017-01-25T13:15:40.211Z,115
2017-01-25T13:16:40.200Z,110
2017-01-25T13:17:40.182Z,110
2017-01-25T13:18:40.176Z,110
2017-01-25T13:19:40.165Z,115
2017-01-25T13:20:40.150Z,105
2017-01-25T13:21:40.160Z,100
2017-01-25T13:22:40.129Z,105
2017-01-25T13:23:40.115Z,110
2017-01-25T13:24:40.107Z,110
2017-01-25T13:25:40.092Z,105
2017-01-25T13:26:40.471Z,105
2017-01-25T13:27:40.068Z,110
2017-01-25T13:28:40.058Z,105
2017-01-25T13:29:40.050Z,100
2017-01-25T13:30:40.034Z,95
2017-01-25T13:31:40.028Z,90
2017-01-25T13:32:40.016Z,95
2017-01-25T13:33:40.005Z,90
2017-01-25T13:34:39.992Z,85
2017-01-25T13:35:40.183Z,85
2017-01-25T13:36:39.970Z,85
2017-01-25T13:37:39.960Z,90
2017-01-25T13:38:39.948Z,90
2017-01-25T13:39:39.934Z,90
2017-01-25T13:40:39.947Z,90
2017-01-25T13:41:39.915Z,90
2017-01-25T13:42:39.903Z,90
2017-01-25T13:43:39.926Z,95
2017-01-25T13:44:39.879Z,95
2017-01-25T13:45:39.868Z,95
2017-01-25T13:46:39.856Z,100
2017-01-25T13:47:39.862Z,100
2017-01-25T13:48:40.225Z,95
2017-01-25T13:49:39.832Z,95
2017-01-25T13:50:39.814Z,100
2017-01-25T13:51:40.196Z,95
2017-01-25T13:52:39.788Z,85
2017-01-25T13:53:40.573Z,80
2017-01-25T13:54:40.156Z,90
2017-01-25T13:55:39.755Z,85
2017-01-25T13:56:39.744Z,80
2017-01-25T13:57:39.735Z,85
2017-01-25T13:58:39.722Z,80
2017-01-25T13:59:40.096Z,80
2017-01-25T14:00:39.698Z,90
2017-01-25T14:01:39.699Z,90
2017-01-25T14:02:39.679Z,85
2017-01-25T14:03:39.663Z,80
2017-01-25T14:04:39.655Z,75
2017-01-25T14:05:39.643Z,80
2017-01-25T14:06:39.639Z,80
2017-01-25T14:07:39.616Z,75
2017-01-25T14:08:39.613Z,75
2017-01-25T14:09:39.599Z,70
2017-01-25T14:10:39.591Z,70
2017-01-25T14:11:39.576Z,70
2017-01-25T14:12:39.563Z,70
2017-01-25T14:13:39.552Z,65
2017-01-25T14:14:39.538Z,60
2017-01-25T14:15:39.528Z,65
2017-01-25T14:16:39.905Z,65
2017-01-25T14:17:39.510Z,60
2017-01-25T14:18:39.496Z,60
2017-01-25T14:19:39.866Z,60
2017-01-25T14:20:39.498Z,60
2017-01-25T14:21:39.461Z,60
2017-01-25T14:22:39.834Z,55